Time;durP1;ratioP1;P1;durP2;ratioP2;P2;SDS_P1;SDS_P2;PMS_P1;PMS_P2;Temp;Humidity;BMP_temperature;BMP_pressure;BME280_temperature;BME280_humidity;BME280_pressure;Samples;Min_cycle;Max_cycle;Signal;HPM_P1;HPM_P2
2023/03/04 00:02:43;;;;;;;17.40;8.10;;;;;;;2.28;65.13;99978.91;107404;1246;59758;-54
2023/03/04 00:05:09;;;;;;;17.80;7.50;;;;;;;2.23;65.26;99980.36;107501;1243;72625;-54
2023/03/04 00:07:37;;;;;;;18.20;7.40;;;;;;;2.19;65.27;99977.59;107518;1243;71019;-54
2023/03/04 00:10:06;;;;;;;17.00;8.20;;;;;;;2.15;65.33;99976.26;107538;1246;73506;-54
2023/03/04 00:12:36;;;;;;;19.40;8.30;;;;;;;2.10;65.34;99969.96;107637;1246;59637;-54
2023/03/04 00:15:03;;;;;;;16.00;7.00;;;;;;;2.03;65.50;99965.47;107469;1245;59893;-54
2023/03/04 00:17:32;;;;;;;20.60;9.20;;;;;;;1.96;65.61;99968.23;107425;1246;72806;-54
2023/03/04 00:19:59;;;;;;;20.40;8.80;;;;;;;1.90;65.70;99962.64;107397;1244;71650;-54
2023/03/04 00:22:26;;;;;;;19.40;8.70;;;;;;;1.90;65.87;99955.91;107390;1246;73730;-54
2023/03/04 00:24:53;;;;;;;19.60;7.60;;;;;;;1.94;65.78;99958.62;107415;1242;61874;-54
2023/03/04 00:27:20;;;;;;;16.30;7.10;;;;;;;1.97;65.68;99956.45;107536;1243;61016;-54
2023/03/04 00:29:47;;;;;;;17.10;7.60;;;;;;;1.99;65.85;99952.19;107845;1241;73882;-54
2023/03/04 00:32:17;;;;;;;16.50;7.60;;;;;;;2.00;65.88;99945.17;107851;1237;71276;-54
2023/03/04 00:34:43;;;;;;;16.80;8.30;;;;;;;1.98;65.87;99946.46;108039;1240;73577;-54
2023/03/04 00:37:10;;;;;;;19.90;9.50;;;;;;;1.96;66.00;99944.50;107786;1237;60211;-54
2023/03/04 00:39:37;;;;;;;19.20;8.40;;;;;;;1.92;66.13;99944.92;107769;1242;61160;-54
2023/03/04 00:42:04;;;;;;;18.10;9.20;;;;;;;1.88;66.23;99948.73;107782;1242;73608;-56
2023/03/04 00:44:31;;;;;;;16.30;7.60;;;;;;;1.82;66.40;99945.05;107779;1242;70996;-55
2023/03/04 00:46:58;;;;;;;17.90;8.10;;;;;;;1.76;66.61;99945.20;107891;1240;73526;-56
2023/03/04 00:49:25;;;;;;;19.90;8.60;;;;;;;1.71;66.82;99938.19;107785;1243;62115;-55
2023/03/04 00:51:52;;;;;;;17.60;9.00;;;;;;;1.73;66.77;99938.09;107823;1240;59929;-54
2023/03/04 00:54:23;;;;;;;19.20;7.90;;;;;;;1.79;66.75;99934.34;107849;1242;73929;-54
2023/03/04 00:56:50;;;;;;;18.80;8.40;;;;;;;1.82;66.74;99928.09;107930;1240;71107;-54
2023/03/04 00:59:17;;;;;;;14.50;7.50;;;;;;;1.83;66.76;99926.87;107820;1241;73334;-55
2023/03/04 01:01:44;;;;;;;23.00;9.20;;;;;;;1.80;66.89;99927.70;107713;1242;60469;-55
2023/03/04 01:04:12;;;;;;;21.00;9.70;;;;;;;1.77;66.87;99921.79;107983;1238;60493;-55
2023/03/04 01:06:41;;;;;;;18.90;8.50;;;;;;;1.74;66.91;99920.39;107891;1241;74933;-55
2023/03/04 01:09:08;;;;;;;17.40;8.40;;;;;;;1.71;66.98;99913.83;108016;1241;69923;-55
2023/03/04 01:11:38;;;;;;;15.30;7.20;;;;;;;1.67;67.05;99905.36;107696;1242;73711;-55
2023/03/04 01:14:05;;;;;;;17.20;8.50;;;;;;;1.65;67.21;99901.48;107914;1241;60908;-54
2023/03/04 01:16:32;;;;;;;18.20;8.40;;;;;;;1.64;67.26;99899.64;107878;1241;61209;-54
2023/03/04 01:18:59;;;;;;;15.40;6.00;;;;;;;1.67;67.16;99901.22;107748;1242;74706;-55
2023/03/04 01:21:26;;;;;;;15.60;6.90;;;;;;;1.72;67.00;99901.12;107920;1240;71318;-55
2023/03/04 01:23:56;;;;;;;15.70;7.80;;;;;;;1.79;66.93;99902.02;107859;1237;73221;-54
2023/03/04 01:26:23;;;;;;;17.30;6.20;;;;;;;1.86;66.60;99903.02;107833;1243;61693;-55
2023/03/04 01:28:50;;;;;;;13.20;6.60;;;;;;;1.92;66.48;99898.92;107957;1239;60897;-54
2023/03/04 01:31:18;;;;;;;16.40;7.10;;;;;;;1.94;66.41;99898.11;107867;1239;73802;-55
2023/03/04 01:33:44;;;;;;;14.70;8.40;;;;;;;1.92;66.35;99894.20;107961;1241;69993;-54
2023/03/04 01:36:12;;;;;;;16.70;7.00;;;;;;;1.88;66.26;99887.36;107781;1243;73530;-54
2023/03/04 01:38:39;;;;;;;17.20;6.60;;;;;;;1.84;66.30;99884.92;107756;1242;60840;-54
2023/03/04 01:41:07;;;;;;;17.50;7.80;;;;;;;1.80;66.35;99885.52;107820;1238;61059;-55
2023/03/04 01:43:36;;;;;;;17.90;8.50;;;;;;;1.74;66.24;99891.19;107531;1244;74591;-54
2023/03/04 01:46:04;;;;;;;16.70;6.90;;;;;;;1.68;66.39;99888.01;107879;1237;71147;-54
2023/03/04 01:48:36;;;;;;;17.80;8.70;;;;;;;1.61;66.50;99889.94;107799;1241;73469;-54
2023/03/04 01:51:04;;;;;;;14.80;7.00;;;;;;;1.54;66.63;99886.84;107798;1242;60456;-55
2023/03/04 01:53:31;;;;;;;14.20;6.10;;;;;;;1.54;66.65;99887.66;107809;1237;60551;-54
2023/03/04 01:56:14;;;;;;;16.80;7.80;;;;;;;1.59;66.55;99885.73;107606;1244;74651;-54
2023/03/04 01:58:44;;;;;;;16.30;6.90;;;;;;;1.63;66.62;99880.14;107595;1245;62472;-54
2023/03/04 02:01:11;;;;;;;16.50;5.80;;;;;;;1.70;66.60;99883.10;107793;1241;73259;-54
2023/03/04 02:03:38;;;;;;;16.70;7.80;;;;;;;1.73;66.57;99881.88;107957;1237;60948;-55
2023/03/04 02:06:05;;;;;;;21.10;9.60;;;;;;;1.72;66.54;99879.85;107813;1242;60899;-54
2023/03/04 02:08:33;;;;;;;18.00;7.60;;;;;;;1.70;66.73;99875.66;107704;1243;74948;-54
2023/03/04 02:11:00;;;;;;;17.10;8.30;;;;;;;1.66;66.77;99869.45;107763;1237;71293;-54
2023/03/04 02:13:28;;;;;;;21.10;11.40;;;;;;;1.61;66.78;99868.98;107840;1243;73596;-54
2023/03/04 02:15:55;;;;;;;20.50;10.30;;;;;;;1.58;66.97;99867.63;107892;1237;60464;-55
2023/03/04 02:18:22;;;;;;;22.40;8.50;;;;;;;1.53;66.99;99864.77;108004;1237;60347;-54
2023/03/04 02:20:55;;;;;;;18.00;9.40;;;;;;;1.48;67.00;99866.57;107966;1241;74894;-55
2023/03/04 02:23:29;;;;;;;19.60;9.80;;;;;;;1.43;67.22;99865.44;107945;1241;69417;-54
2023/03/04 02:26:14;;;;;;;17.70;8.40;;;;;;;1.38;67.42;99865.15;107820;1242;64729;-55
2023/03/04 02:28:42;;;;;;;17.80;8.00;;;;;;;1.39;67.43;99860.27;107930;1241;60532;-55
2023/03/04 02:31:19;;;;;;;16.00;6.90;;;;;;;1.45;67.45;99859.29;107891;1240;60379;-54
2023/03/04 02:33:46;;;;;;;21.00;8.00;;;;;;;1.49;67.26;99863.39;107801;1242;65887;-55
2023/03/04 02:36:13;;;;;;;17.60;7.70;;;;;;;1.54;67.46;99857.44;107825;1243;71185;-55
2023/03/04 02:38:40;;;;;;;17.20;7.80;;;;;;;1.60;67.41;99853.32;107878;1243;72594;-54
2023/03/04 02:41:13;;;;;;;25.40;10.30;;;;;;;1.63;67.56;99844.02;107832;1237;60475;-54
2023/03/04 02:43:43;;;;;;;21.20;8.60;;;;;;;1.61;67.49;99843.95;107710;1238;60500;-54
2023/03/04 02:46:11;;;;;;;22.80;10.10;;;;;;;1.58;67.63;99843.40;107812;1241;75094;-55
2023/03/04 02:48:41;;;;;;;20.70;8.70;;;;;;;1.54;67.70;99845.17;107733;1243;70348;-54
2023/03/04 02:51:08;;;;;;;27.50;11.40;;;;;;;1.50;67.77;99844.17;107709;1243;73637;-55
2023/03/04 02:53:37;;;;;;;21.60;9.70;;;;;;;1.45;67.93;99841.80;107749;1244;60512;-54
2023/03/04 02:56:05;;;;;;;18.40;8.90;;;;;;;1.42;68.03;99838.86;107850;1243;61214;-55
2023/03/04 02:58:34;;;;;;;19.00;9.00;;;;;;;1.37;68.08;99828.92;107898;1243;74570;-54
2023/03/04 03:01:05;;;;;;;22.70;10.60;;;;;;;1.39;68.05;99829.67;107865;1237;69438;-55
2023/03/04 03:03:32;;;;;;;17.30;8.20;;;;;;;1.44;68.05;99824.74;107873;1241;73560;-55
2023/03/04 03:05:59;;;;;;;14.70;7.40;;;;;;;1.51;67.84;99813.98;107756;1240;61933;-55
2023/03/04 03:08:26;;;;;;;17.40;8.70;;;;;;;1.58;67.88;99818.17;107745;1237;61217;-55
2023/03/04 03:10:54;;;;;;;21.90;10.70;;;;;;;1.61;67.84;99818.36;108082;1241;74561;-54
2023/03/04 03:13:21;;;;;;;21.80;9.70;;;;;;;1.61;67.80;99819.03;107929;1242;71036;-55
2023/03/04 03:15:54;;;;;;;22.70;11.70;;;;;;;1.59;67.74;99819.83;107764;1243;73376;-55
2023/03/04 03:18:23;;;;;;;27.70;10.80;;;;;;;1.57;67.83;99813.70;107947;1237;60439;-55
2023/03/04 03:20:50;;;;;;;22.20;9.40;;;;;;;1.57;67.85;99808.20;107732;1237;61208;-55
2023/03/04 03:23:17;;;;;;;19.60;8.20;;;;;;;1.55;67.80;99802.58;107758;1243;74602;-55
2023/03/04 03:25:44;;;;;;;18.30;8.60;;;;;;;1.53;67.91;99803.56;107828;1241;70878;-55
2023/03/04 03:28:11;;;;;;;22.80;10.50;;;;;;;1.53;67.82;99802.71;108268;1238;73593;-56
2023/03/04 03:30:38;;;;;;;16.20;7.20;;;;;;;1.60;67.60;99802.50;107766;1242;62088;-55
2023/03/04 03:33:06;;;;;;;21.70;9.00;;;;;;;1.67;67.47;99797.29;107811;1241;61037;-54
2023/03/04 03:35:33;;;;;;;20.10;8.50;;;;;;;1.75;67.42;99801.57;107700;1243;74703;-55
2023/03/04 03:38:00;;;;;;;19.40;9.90;;;;;;;1.81;67.26;99800.86;107889;1242;70982;-55
2023/03/04 03:40:26;;;;;;;24.60;12.10;;;;;;;1.84;67.10;99798.14;107808;1240;73417;-55
2023/03/04 03:42:54;;;;;;;19.50;9.00;;;;;;;1.82;67.07;99798.39;107983;1241;60439;-54
2023/03/04 03:45:21;;;;;;;18.50;9.70;;;;;;;1.81;67.13;99798.29;107725;1238;61163;-55
2023/03/04 03:47:48;;;;;;;21.30;9.60;;;;;;;1.78;67.19;99792.23;107819;1241;74507;-54
2023/03/04 03:50:15;;;;;;;22.50;10.10;;;;;;;1.76;67.08;99795.95;107917;1243;71450;-54
2023/03/04 03:52:42;;;;;;;19.80;9.40;;;;;;;1.74;67.18;99791.06;107844;1241;73479;-55
2023/03/04 03:55:09;;;;;;;21.50;9.40;;;;;;;1.70;67.18;99785.39;107883;1243;60446;-55
2023/03/04 03:57:36;;;;;;;21.70;7.40;;;;;;;1.74;67.16;99781.74;107905;1242;61206;-55
2023/03/04 04:00:04;;;;;;;19.20;8.70;;;;;;;1.81;67.10;99775.61;107791;1241;74715;-55
2023/03/04 04:02:41;;;;;;;22.80;9.80;;;;;;;1.87;66.93;99775.65;107898;1240;61392;-55
2023/03/04 04:05:09;;;;;;;16.60;8.70;;;;;;;1.94;66.85;99772.84;107867;1244;72677;-54
2023/03/04 04:07:36;;;;;;;19.30;10.20;;;;;;;1.98;66.84;99776.25;107860;1241;60499;-55
2023/03/04 04:10:07;;;;;;;17.10;10.40;;;;;;;1.99;66.89;99776.22;107793;1242;61207;-54
2023/03/04 04:12:34;;;;;;;22.00;9.40;;;;;;;1.99;66.89;99769.11;107848;1241;74669;-55
2023/03/04 04:15:01;;;;;;;24.20;9.10;;;;;;;2.00;66.78;99763.69;107775;1240;70979;-54
2023/03/04 04:17:28;;;;;;;21.20;10.20;;;;;;;1.99;66.90;99750.59;107757;1241;72647;-55
2023/03/04 04:19:55;;;;;;;19.90;9.00;;;;;;;1.99;66.83;99746.84;107930;1241;60534;-54
2023/03/04 04:22:22;;;;;;;20.30;9.80;;;;;;;1.99;66.80;99744.58;107888;1240;60537;-54
2023/03/04 04:24:49;;;;;;;22.70;8.70;;;;;;;2.05;66.69;99742.34;107835;1240;74573;-54
2023/03/04 04:27:17;;;;;;;21.20;9.30;;;;;;;2.15;66.47;99739.73;107811;1242;70946;-54
2023/03/04 04:29:44;;;;;;;23.20;8.50;;;;;;;2.24;66.27;99737.67;107755;1243;73851;-55
2023/03/04 04:32:12;;;;;;;20.70;8.00;;;;;;;2.30;66.20;99728.85;107791;1243;60450;-54
2023/03/04 04:34:39;;;;;;;17.90;7.90;;;;;;;2.33;66.11;99726.75;107829;1239;60902;-54
2023/03/04 04:37:06;;;;;;;21.10;10.70;;;;;;;2.34;65.99;99723.10;107794;1240;73869;-54
2023/03/04 04:39:39;;;;;;;17.50;7.60;;;;;;;2.35;66.09;99714.56;107817;1240;62287;-55
2023/03/04 04:42:08;;;;;;;19.40;10.00;;;;;;;2.36;66.12;99705.13;107994;1238;73363;-54
2023/03/04 04:44:37;;;;;;;17.20;6.80;;;;;;;2.36;65.95;99696.48;107811;1242;60561;-55
2023/03/04 04:47:06;;;;;;;18.10;8.10;;;;;;;2.37;65.97;99694.70;108238;1239;61198;-55
2023/03/04 04:49:33;;;;;;;22.60;9.80;;;;;;;2.37;65.83;99687.05;107866;1243;74850;-54
2023/03/04 04:52:00;;;;;;;17.90;8.80;;;;;;;2.43;65.81;99681.04;107839;1241;71756;-55
2023/03/04 04:54:27;;;;;;;20.50;8.90;;;;;;;2.53;65.57;99678.35;107870;1237;73359;-54
2023/03/04 04:56:56;;;;;;;23.10;7.90;;;;;;;2.63;65.43;99673.66;107874;1238;60510;-55
2023/03/04 04:59:23;;;;;;;19.60;7.30;;;;;;;2.72;65.14;99676.72;107795;1243;61282;-54
2023/03/04 05:01:51;;;;;;;18.50;8.00;;;;;;;2.78;64.99;99671.52;107697;1243;74618;-54
2023/03/04 05:04:18;;;;;;;19.10;8.40;;;;;;;2.82;64.88;99667.66;107879;1241;62511;-55
2023/03/04 05:06:45;;;;;;;34.60;23.60;;;;;;;2.84;64.70;99664.80;107868;1242;73456;-54
2023/03/04 05:09:12;;;;;;;24.80;10.60;;;;;;;2.84;64.46;99662.52;107668;1243;60528;-54
2023/03/04 05:11:39;;;;;;;18.50;9.00;;;;;;;2.82;64.32;99662.48;107880;1241;60881;-55
2023/03/04 05:14:09;;;;;;;32.90;11.30;;;;;;;2.80;64.27;99659.13;107755;1244;64861;-55
2023/03/04 05:16:37;;;;;;;15.70;7.60;;;;;;;2.78;64.19;99656.44;107766;1241;70162;-55
2023/03/04 05:19:04;;;;;;;18.10;9.40;;;;;;;2.75;63.92;99650.95;107690;1243;72550;-54
2023/03/04 05:21:31;;;;;;;17.50;8.00;;;;;;;2.70;63.85;99647.45;107903;1243;60555;-54
2023/03/04 05:23:58;;;;;;;17.70;8.40;;;;;;;2.66;64.01;99643.17;107865;1239;61022;-54
2023/03/04 05:26:27;;;;;;;16.00;6.70;;;;;;;2.71;64.04;99646.99;107839;1240;72608;-54
2023/03/04 05:28:55;;;;;;;21.70;9.50;;;;;;;2.81;63.75;99650.92;107774;1241;71112;-54
2023/03/04 05:31:21;;;;;;;19.10;7.40;;;;;;;2.87;63.48;99654.89;107810;1243;73353;-55
2023/03/04 05:33:49;;;;;;;19.70;7.00;;;;;;;2.89;63.35;99652.38;107814;1241;60446;-55
2023/03/04 05:36:16;;;;;;;19.80;8.60;;;;;;;2.88;63.26;99650.70;107789;1241;61075;-55
2023/03/04 05:38:43;;;;;;;16.80;7.30;;;;;;;2.87;63.18;99642.79;107765;1241;74662;-54
2023/03/04 05:41:10;;;;;;;21.50;8.60;;;;;;;2.87;63.21;99639.34;107800;1238;71340;-52
2023/03/04 05:43:41;;;;;;;16.30;7.60;;;;;;;2.87;62.93;99636.22;107790;1243;73705;-55
2023/03/04 05:46:12;;;;;;;20.10;8.20;;;;;;;2.86;62.93;99638.85;107832;1238;60470;-54
2023/03/04 05:48:39;;;;;;;21.20;9.80;;;;;;;2.86;62.86;99636.45;107732;1238;60852;-54
2023/03/04 05:51:06;;;;;;;20.60;7.80;;;;;;;2.84;62.70;99626.66;107886;1241;74605;-54
2023/03/04 05:53:35;;;;;;;20.60;9.10;;;;;;;2.82;62.60;99614.16;107897;1242;71359;-54
2023/03/04 05:56:09;;;;;;;15.00;7.10;;;;;;;2.81;62.49;99615.61;108096;1238;73250;-54
2023/03/04 05:58:37;;;;;;;13.70;6.70;;;;;;;2.87;62.05;99614.91;107794;1242;60983;-54
2023/03/04 06:01:09;;;;;;;13.90;6.20;;;;;;;2.96;61.95;99611.41;107859;1238;60449;-54
2023/03/04 06:03:36;;;;;;;14.10;6.90;;;;;;;3.05;61.80;99617.94;108054;1240;74399;-53
2023/03/04 06:06:04;;;;;;;32.70;20.50;;;;;;;3.12;61.36;99622.38;108037;1241;71177;-54
2023/03/04 06:08:34;;;;;;;14.10;6.00;;;;;;;3.15;61.44;99614.90;107907;1241;73586;-53
2023/03/04 06:11:01;;;;;;;11.50;5.90;;;;;;;3.19;61.24;99608.84;107844;1241;60468;-54
2023/03/04 06:13:33;;;;;;;16.90;6.90;;;;;;;3.19;61.05;99602.20;107776;1237;61182;-53
2023/03/04 06:16:00;;;;;;;17.30;6.40;;;;;;;3.19;60.98;99597.69;107903;1241;74552;-54
2023/03/04 06:18:28;;;;;;;18.30;8.30;;;;;;;3.19;60.75;99603.11;108020;1240;71040;-55
2023/03/04 06:20:59;;;;;;;21.40;7.90;;;;;;;3.18;60.75;99602.42;107971;1242;73392;-55
2023/03/04 06:23:26;;;;;;;14.40;8.20;;;;;;;3.19;60.68;99598.73;107913;1239;60487;-55
2023/03/04 06:25:54;;;;;;;17.80;6.80;;;;;;;3.19;60.43;99596.17;107796;1241;60831;-53
2023/03/04 06:28:21;;;;;;;31.20;21.20;;;;;;;3.19;60.57;99586.62;107849;1240;74918;-53
2023/03/04 06:30:51;;;;;;;19.00;8.90;;;;;;;3.21;60.50;99583.54;107811;1236;71187;-55
2023/03/04 06:33:21;;;;;;;19.30;8.60;;;;;;;3.30;59.97;99582.98;107931;1241;73468;-54
2023/03/04 06:35:53;;;;;;;21.60;7.60;;;;;;;3.38;59.85;99578.48;107846;1238;60688;-54
2023/03/04 06:38:20;;;;;;;35.00;19.70;;;;;;;3.40;60.11;99571.75;107887;1238;60517;-55
2023/03/04 06:40:47;;;;;;;16.00;6.50;;;;;;;3.43;60.28;99575.07;107822;1242;74850;-55
2023/03/04 06:43:14;;;;;;;18.80;8.40;;;;;;;3.44;60.04;99571.36;108001;1242;71140;-54
2023/03/04 06:45:41;;;;;;;23.00;8.40;;;;;;;3.42;59.97;99571.28;107994;1242;73219;-55
2023/03/04 06:48:09;;;;;;;17.70;8.70;;;;;;;3.41;60.20;99568.80;107851;1240;60527;-56
2023/03/04 06:50:36;;;;;;;33.30;21.30;;;;;;;3.43;60.38;99568.16;107835;1240;60880;-54
2023/03/04 06:53:03;;;;;;;19.60;8.50;;;;;;;3.44;60.41;99568.38;107778;1241;74536;-53
2023/03/04 06:55:34;;;;;;;19.30;8.20;;;;;;;3.45;60.43;99569.53;107772;1239;71298;-54
2023/03/04 06:58:01;;;;;;;20.10;8.80;;;;;;;3.50;60.38;99561.43;107742;1241;73362;-54
2023/03/04 07:00:29;;;;;;;33.00;22.00;;;;;;;3.59;60.30;99557.73;107883;1244;61912;-53
2023/03/04 07:02:57;;;;;;;20.90;9.00;;;;;;;3.66;60.15;99551.70;107883;1243;60973;-53
2023/03/04 07:05:24;;;;;;;23.60;9.00;;;;;;;3.70;60.25;99555.96;108027;1240;74445;-54
2023/03/04 07:07:51;;;;;;;18.50;9.30;;;;;;;3.73;60.06;99547.48;107964;1239;71100;-53
2023/03/04 07:10:20;;;;;;;40.40;24.50;;;;;;;3.74;60.01;99541.86;107807;1241;71929;-54
2023/03/04 07:12:47;;;;;;;21.80;9.60;;;;;;;3.76;60.02;99540.52;107791;1241;60537;-53
2023/03/04 07:15:14;;;;;;;35.80;24.20;;;;;;;3.77;60.12;99542.01;107788;1241;60912;-54
2023/03/04 07:17:42;;;;;;;14.90;8.20;;;;;;;3.78;59.97;99544.16;107821;1238;74689;-54
2023/03/04 07:20:10;;;;;;;25.10;9.90;;;;;;;3.80;60.11;99521.34;107907;1241;70965;-53
2023/03/04 07:22:37;;;;;;;39.70;26.30;;;;;;;3.81;59.81;99533.04;107942;1240;73717;-53
2023/03/04 07:25:05;;;;;;;19.70;9.60;;;;;;;3.89;59.63;99516.08;107849;1238;62126;-54
2023/03/04 07:27:37;;;;;;;26.40;9.00;;;;;;;4.03;59.52;99514.09;107971;1240;61215;-53
2023/03/04 07:30:06;;;;;;;22.80;10.00;;;;;;;4.15;58.92;99506.73;108169;1240;74498;-53
2023/03/04 07:32:34;;;;;;;22.40;10.70;;;;;;;4.21;58.77;99508.19;108002;1240;70069;-53
2023/03/04 07:35:02;;;;;;;21.20;10.70;;;;;;;4.26;58.54;99504.71;107944;1238;74693;-53
2023/03/04 07:37:29;;;;;;;35.80;12.30;;;;;;;4.32;58.45;99497.58;107856;1240;60455;-52
2023/03/04 07:39:56;;;;;;;43.70;28.20;;;;;;;4.37;58.23;99498.98;107977;1238;61168;-54
2023/03/04 07:42:23;;;;;;;21.00;10.30;;;;;;;4.40;57.90;99487.66;107805;1241;74649;-53
2023/03/04 07:44:58;;;;;;;42.10;27.80;;;;;;;4.40;57.24;99487.28;107805;1241;70992;-54
2023/03/04 07:47:26;;;;;;;26.20;11.90;;;;;;;4.38;57.11;99491.80;107895;1249;73440;-53
2023/03/04 07:49:55;;;;;;;24.50;12.00;;;;;;;4.37;57.15;99483.19;107750;1248;60531;-53
2023/03/04 07:52:21;;;;;;;27.30;12.90;;;;;;;4.35;56.95;99484.33;107892;1238;60930;-54
2023/03/04 07:54:48;;;;;;;24.40;10.40;;;;;;;4.35;56.72;99490.94;107902;1240;74701;-54
2023/03/04 07:57:16;;;;;;;42.80;27.50;;;;;;;4.32;56.69;99490.44;107873;1241;70891;-55
2023/03/04 07:59:43;;;;;;;22.30;10.30;;;;;;;4.30;56.53;99471.83;107862;1245;73477;-54
2023/03/04 08:02:09;;;;;;;41.30;27.30;;;;;;;4.29;56.43;99467.91;107906;1241;60979;-53
2023/03/04 08:04:37;;;;;;;20.90;10.10;;;;;;;4.30;56.48;99472.88;107887;1240;61203;-54
2023/03/04 08:07:04;;;;;;;28.90;10.50;;;;;;;4.37;56.07;99467.91;107923;1241;74751;-54
2023/03/04 08:09:37;;;;;;;37.00;26.00;;;;;;;4.52;56.15;99458.34;107804;1241;70084;-55
2023/03/04 08:12:04;;;;;;;26.80;13.50;;;;;;;4.62;55.83;99460.93;107847;1241;73586;-53
2023/03/04 08:14:32;;;;;;;29.50;11.70;;;;;;;4.64;55.27;99467.01;107942;1240;60534;-54
2023/03/04 08:17:04;;;;;;;36.60;25.10;;;;;;;4.65;54.91;99474.48;107699;1238;61218;-54
2023/03/04 08:19:32;;;;;;;42.50;27.30;;;;;;;4.67;54.85;99458.55;107926;1241;74675;-53
2023/03/04 08:21:59;;;;;;;23.20;10.00;;;;;;;4.68;54.40;99458.63;107805;1241;71116;-53
2023/03/04 08:24:26;;;;;;;22.30;9.70;;;;;;;4.70;54.51;99455.88;107912;1238;72311;-53
2023/03/04 08:26:54;;;;;;;22.80;10.80;;;;;;;4.75;54.58;99460.05;107931;1240;60717;-52
2023/03/04 08:29:22;;;;;;;36.50;25.50;;;;;;;4.79;53.82;99478.20;107846;1238;61001;-52
2023/03/04 08:31:49;;;;;;;25.70;12.20;;;;;;;4.82;54.08;99470.00;107834;1241;74640;-53
2023/03/04 08:34:19;;;;;;;19.20;9.40;;;;;;;4.86;53.79;99468.30;107821;1238;71061;-53
2023/03/04 08:36:51;;;;;;;24.10;10.50;;;;;;;4.88;53.53;99465.09;107908;1248;73526;-54
2023/03/04 08:39:18;;;;;;;35.80;24.30;;;;;;;4.86;53.48;99461.90;107874;1242;60384;-52
2023/03/04 08:41:46;;;;;;;24.40;10.60;;;;;;;4.85;53.42;99469.21;107938;1239;60899;-52
2023/03/04 08:44:13;;;;;;;19.30;9.10;;;;;;;4.84;53.44;99462.33;107884;1241;74904;-52
2023/03/04 08:46:41;;;;;;;17.50;8.60;;;;;;;4.88;53.82;99460.52;107848;1240;69342;-52
2023/03/04 08:49:11;;;;;;;24.20;11.30;;;;;;;4.91;53.38;99460.48;107862;1242;73406;-53
2023/03/04 08:51:39;;;;;;;35.50;23.80;;;;;;;4.90;53.13;99474.75;107724;1241;255213;-53
2023/03/04 08:55:37;;;;;;;20.60;8.80;;;;;;;4.70;53.50;99459.70;102495;1295;599655;-52
2023/03/04 08:58:05;;;;;;;21.60;9.60;;;;;;;4.83;52.99;99455.95;104917;1266;59328;-52
2023/03/04 09:00:35;;;;;;;36.20;23.90;;;;;;;4.86;53.24;99451.11;104787;1267;61397;-53
2023/03/04 09:03:23;;;;;;;20.30;9.00;;;;;;;4.90;53.27;99457.60;104629;1266;66134;-53
2023/03/04 09:05:53;;;;;;;36.10;23.90;;;;;;;4.95;53.41;99454.14;104883;1267;71092;-53
2023/03/04 09:08:22;;;;;;;23.10;11.80;;;;;;;5.03;53.34;99449.36;104897;1263;146404;-52
2023/03/04 09:10:51;;;;;;;17.70;8.40;;;;;;;5.11;53.12;99454.16;105026;1267;60555;-52
2023/03/04 09:13:22;;;;;;;24.70;10.50;;;;;;;5.14;52.65;99452.57;105119;1263;60343;-54
2023/03/04 09:15:54;;;;;;;20.90;10.60;;;;;;;5.09;52.55;99456.03;105076;1267;73195;-52
2023/03/04 09:18:23;;;;;;;37.20;25.20;;;;;;;5.07;52.72;99441.59;105032;1267;70415;-53
2023/03/04 09:20:51;;;;;;;19.10;10.20;;;;;;;5.08;52.78;99434.77;105055;1264;74366;-53
2023/03/04 09:23:21;;;;;;;36.30;23.60;;;;;;;5.13;52.77;99438.79;105034;1264;60560;-53
2023/03/04 09:25:49;;;;;;;18.90;9.00;;;;;;;5.16;52.74;99441.64;105021;1263;61387;-53
2023/03/04 09:28:18;;;;;;;22.80;11.00;;;;;;;5.22;52.15;99445.92;105089;1267;74032;-53
2023/03/04 09:30:46;;;;;;;35.80;22.50;;;;;;;5.30;51.78;99432.11;104948;1268;70899;-52
2023/03/04 09:33:15;;;;;;;18.50;8.70;;;;;;;5.37;50.80;99443.60;105075;1264;73695;-52
2023/03/04 09:35:44;;;;;;;33.00;21.70;;;;;;;5.40;50.49;99427.73;105054;1263;60250;-53
2023/03/04 09:38:12;;;;;;;24.10;8.90;;;;;;;5.48;50.56;99425.42;105068;1263;60519;-52
2023/03/04 09:40:47;;;;;;;31.50;21.20;;;;;;;5.56;50.13;99422.73;104990;1267;74089;-54
2023/03/04 09:43:23;;;;;;;30.70;21.30;;;;;;;5.55;49.52;99433.44;105023;1267;71164;-52
2023/03/04 09:45:52;;;;;;;;;;;;;;;5.51;49.70;99430.73;105100;1264;64690;-53
2023/03/04 09:48:23;;;;;;;17.90;8.30;;;;;;;5.48;49.35;99437.23;105055;1264;59659;-53
2023/03/04 09:51:03;;;;;;;21.90;8.30;;;;;;;5.42;49.19;99433.00;105138;1264;61021;-53
2023/03/04 09:53:35;;;;;;;32.90;22.50;;;;;;;5.37;49.21;99437.52;105038;1268;65371;-52
2023/03/04 09:56:03;;;;;;;21.50;7.70;;;;;;;5.31;49.56;99437.08;104929;1267;71272;-54
2023/03/04 09:58:39;;;;;;;19.20;8.10;;;;;;;5.31;49.77;99424.77;104720;1264;73710;-53
2023/03/04 10:01:21;;;;;;;34.90;20.90;;;;;;;5.34;49.79;99424.35;104859;1263;59777;-52
2023/03/04 10:03:54;;;;;;;34.90;20.70;;;;;;;5.39;49.64;99419.98;104991;1263;59755;-52
2023/03/04 10:06:23;;;;;;;20.00;8.30;;;;;;;5.39;49.23;99420.15;104974;1264;65195;-53
2023/03/04 10:09:00;;;;;;;19.20;9.20;;;;;;;5.39;49.34;99429.48;105007;1263;70428;-53
2023/03/04 10:11:33;;;;;;;15.10;8.20;;;;;;;5.39;49.19;99428.52;104964;1264;65015;-53
2023/03/04 10:14:20;;;;;;;30.60;20.40;;;;;;;5.34;48.85;99433.70;104977;1264;59675;-54
2023/03/04 10:16:51;;;;;;;18.00;8.00;;;;;;;5.30;49.12;99422.02;105021;1269;59656;-53
2023/03/04 10:19:24;;;;;;;20.70;10.00;;;;;;;5.26;49.28;99421.62;104942;1263;73354;-53
2023/03/04 10:21:53;;;;;;;18.10;8.90;;;;;;;5.22;49.15;99420.02;104690;1264;71021;-52
2023/03/04 10:24:26;;;;;;;28.80;19.30;;;;;;;5.18;49.50;99410.74;104917;1263;73686;-53
2023/03/04 10:27:00;;;;;;;22.50;9.20;;;;;;;5.18;49.64;99404.11;105047;1264;59634;-53
2023/03/04 10:29:29;;;;;;;38.70;23.00;;;;;;;5.19;49.63;99412.73;105054;1267;59670;-53
2023/03/04 10:31:57;;;;;;;21.00;9.80;;;;;;;5.17;49.52;99398.25;104780;1263;74094;-52
2023/03/04 10:34:26;;;;;;;22.40;10.30;;;;;;;5.14;49.66;99414.13;105010;1264;62789;-53
2023/03/04 10:37:05;;;;;;;21.50;12.20;;;;;;;5.09;49.80;99397.85;104998;1263;73805;-54
2023/03/04 10:39:40;;;;;;;22.00;10.00;;;;;;;5.06;50.02;99393.04;104763;1263;60533;-53
2023/03/04 10:42:15;;;;;;;25.80;9.80;;;;;;;5.06;50.23;99386.63;104950;1263;59762;-54
2023/03/04 10:44:55;;;;;;;35.00;22.80;;;;;;;5.05;50.40;99384.03;104731;1266;64219;-53
2023/03/04 10:47:25;;;;;;;17.30;8.20;;;;;;;5.06;50.51;99382.95;104957;1269;61781;-53
2023/03/04 10:50:00;;;;;;;33.00;21.30;;;;;;;5.08;50.77;99371.67;104891;1264;64823;-53
2023/03/04 10:52:34;;;;;;;16.30;7.80;;;;;;;5.11;50.70;99374.21;104980;1264;59679;-53
2023/03/04 10:55:05;;;;;;;17.30;8.90;;;;;;;5.11;50.47;99372.15;105014;1264;59674;-54
2023/03/04 10:57:38;;;;;;;34.00;21.60;;;;;;;5.09;50.68;99367.39;104719;1266;65154;-53
2023/03/04 11:00:16;;;;;;;19.10;8.90;;;;;;;5.07;50.60;99375.77;105124;1260;62645;-53
2023/03/04 11:02:48;;;;;;;15.90;8.00;;;;;;;5.03;50.79;99364.55;105082;1260;64752;-53
2023/03/04 11:05:21;;;;;;;33.60;22.20;;;;;;;5.00;50.81;99363.91;105070;1260;59628;-54
2023/03/04 11:07:54;;;;;;;24.70;9.40;;;;;;;4.99;50.67;99364.11;105086;1265;59675;-55
2023/03/04 11:10:34;;;;;;;33.80;19.80;;;;;;;5.02;50.43;99358.50;105559;1260;65497;-54
2023/03/04 11:13:10;;;;;;;18.70;8.20;;;;;;;5.04;49.76;99361.34;105222;1260;62541;-52
2023/03/04 11:16:03;;;;;;;17.10;8.20;;;;;;;5.01;49.35;99366.06;105312;1265;64029;-51
2023/03/04 11:18:44;;;;;;;30.40;20.30;;;;;;;4.93;49.69;99362.34;105186;1260;59592;-53
2023/03/04 11:21:33;;;;;;;17.70;8.20;;;;;;;4.83;49.78;99356.95;105110;1260;59743;-54
2023/03/04 11:24:03;;;;;;;18.00;9.20;;;;;;;4.81;50.25;99355.05;105208;1260;64422;-54
2023/03/04 11:26:52;;;;;;;17.80;7.80;;;;;;;4.83;50.12;99357.80;105101;1260;71098;-52
2023/03/04 11:29:33;;;;;;;15.40;8.20;;;;;;;4.89;49.47;99349.95;105206;1260;74115;-52
2023/03/04 11:32:07;;;;;;;15.50;8.40;;;;;;;4.97;49.53;99353.00;105217;1265;59774;-53
2023/03/04 11:34:43;;;;;;;25.00;18.00;;;;;;;5.05;49.18;99341.42;105113;1260;61627;-52